createdAt,value
2023-03-28T00:00:49.823Z,7.10
2023-03-28T00:03:19.608Z,10.20
2023-03-28T00:05:49.063Z,4.93
2023-03-28T00:08:17.188Z,8.37
2023-03-28T00:10:44.304Z,3.80
2023-03-28T00:13:13.946Z,8.33
2023-03-28T00:15:42.170Z,3.20
2023-03-28T00:18:11.633Z,4.60
2023-03-28T00:20:40.045Z,5.00
2023-03-28T00:23:08.106Z,10.93
2023-03-28T00:25:35.904Z,3.23
2023-03-28T00:28:03.453Z,2.57
2023-03-28T00:30:30.152Z,8.13
2023-03-28T00:32:57.557Z,7.17
2023-03-28T00:35:24.595Z,2.90
2023-03-28T00:37:53.700Z,5.87
2023-03-28T00:40:20.192Z,6.93
2023-03-28T00:42:46.706Z,5.60
2023-03-28T00:45:13.610Z,6.90
2023-03-28T00:47:46.371Z,6.03
2023-03-28T00:50:20.826Z,5.47
2023-03-28T00:52:52.811Z,4.43
2023-03-28T00:55:24.279Z,13.30
2023-03-28T00:57:52.971Z,7.00
2023-03-28T01:00:21.048Z,5.60
2023-03-28T01:02:52.459Z,4.80
2023-03-28T01:05:28.240Z,3.60
2023-03-28T01:07:59.291Z,5.27
2023-03-28T01:10:26.737Z,6.47
2023-03-28T01:12:54.823Z,4.50
2023-03-28T01:15:21.647Z,7.07
2023-03-28T01:17:50.576Z,6.53
2023-03-28T01:20:26.687Z,4.90
2023-03-28T01:23:04.508Z,6.13
2023-03-28T01:25:42.321Z,5.20
2023-03-28T01:28:32.571Z,9.13
2023-03-28T01:31:13.596Z,10.67
2023-03-28T01:33:47.623Z,9.10
2023-03-28T01:36:35.732Z,4.83
2023-03-28T01:39:34.937Z,6.67
2023-03-28T01:42:28.242Z,5.80
2023-03-28T01:45:15.008Z,9.97
2023-03-28T01:47:44.017Z,5.83
2023-03-28T01:50:29.678Z,9.20
2023-03-28T01:53:21.632Z,8.17
2023-03-28T01:55:57.200Z,3.70
2023-03-28T01:58:33.058Z,9.00
2023-03-28T02:01:08.013Z,11.90
2023-03-28T02:03:40.727Z,13.10
2023-03-28T02:06:08.994Z,6.17
2023-03-28T02:08:37.986Z,2.10
2023-03-28T02:11:04.873Z,9.17
2023-03-28T02:13:37.713Z,8.30
2023-03-28T02:16:05.095Z,6.20
2023-03-28T02:18:34.819Z,12.77
2023-03-28T02:21:13.076Z,7.87
2023-03-28T02:23:42.750Z,8.60
2023-03-28T02:26:09.736Z,10.00
2023-03-28T02:28:37.168Z,6.10
2023-03-28T02:31:05.175Z,5.07
2023-03-28T02:33:46.156Z,4.53
2023-03-28T02:36:46.938Z,6.67
2023-03-28T02:39:20.865Z,5.53
2023-03-28T02:42:19.896Z,5.33
2023-03-28T02:45:18.664Z,10.10
2023-03-28T02:48:01.080Z,5.63
2023-03-28T02:50:48.803Z,4.30
2023-03-28T02:53:27.044Z,7.57
2023-03-28T02:56:12.833Z,8.50
2023-03-28T02:58:46.337Z,5.63
2023-03-28T03:01:14.596Z,6.33
2023-03-28T03:03:42.397Z,4.57
2023-03-28T03:06:09.832Z,5.97
2023-03-28T03:08:36.414Z,5.63
2023-03-28T03:11:03.034Z,7.00
2023-03-28T03:13:29.854Z,8.67
2023-03-28T03:15:56.651Z,7.23
2023-03-28T03:18:23.778Z,13.47
2023-03-28T03:20:50.345Z,4.60
2023-03-28T03:23:17.291Z,5.23
2023-03-28T03:25:45.085Z,7.80
2023-03-28T03:28:13.097Z,5.80
2023-03-28T03:30:39.798Z,6.67
2023-03-28T03:33:10.183Z,7.40
2023-03-28T03:35:37.719Z,8.10
2023-03-28T03:38:04.481Z,7.40
2023-03-28T03:40:31.039Z,9.90
2023-03-28T03:42:57.680Z,9.70
2023-03-28T03:45:24.279Z,6.93
2023-03-28T03:47:50.765Z,6.93
2023-03-28T03:50:17.464Z,15.17
2023-03-28T03:52:44.205Z,7.87
2023-03-28T03:55:11.600Z,10.13
2023-03-28T03:57:38.143Z,8.07
2023-03-28T04:00:11.678Z,10.60
2023-03-28T04:02:39.364Z,11.87
2023-03-28T04:05:08.555Z,13.90
2023-03-28T04:07:35.715Z,15.70
2023-03-28T04:10:02.658Z,12.30
2023-03-28T04:12:29.274Z,10.83
2023-03-28T04:14:56.260Z,10.87
2023-03-28T04:17:23.537Z,11.77
2023-03-28T04:19:50.454Z,13.43
2023-03-28T04:22:18.317Z,8.30
2023-03-28T04:24:45.827Z,13.37
2023-03-28T04:27:12.373Z,17.37
2023-03-28T04:29:41.676Z,16.27
2023-03-28T04:32:11.098Z,15.50
2023-03-28T04:34:39.074Z,13.70
2023-03-28T04:37:05.972Z,12.10
2023-03-28T04:39:37.002Z,15.23
2023-03-28T04:42:05.612Z,12.70
2023-03-28T04:44:32.634Z,15.53
2023-03-28T04:46:59.648Z,10.43
2023-03-28T04:49:26.760Z,16.23
2023-03-28T04:51:53.486Z,10.80
2023-03-28T04:54:20.379Z,8.30
2023-03-28T04:56:50.339Z,8.50
2023-03-28T04:59:17.620Z,7.10
2023-03-28T05:01:49.351Z,16.77
2023-03-28T05:04:19.904Z,11.87
2023-03-28T05:06:47.015Z,18.23
2023-03-28T05:09:14.335Z,14.20
2023-03-28T05:11:41.231Z,19.53
2023-03-28T05:14:08.117Z,14.93
2023-03-28T05:16:34.675Z,13.87
2023-03-28T05:19:01.613Z,10.03
2023-03-28T05:21:29.018Z,12.40
2023-03-28T05:23:56.217Z,17.37
2023-03-28T05:26:22.947Z,15.47
2023-03-28T05:28:49.668Z,10.47
2023-03-28T05:31:17.268Z,11.87
2023-03-28T05:33:44.297Z,11.90
2023-03-28T05:36:12.849Z,18.73
2023-03-28T05:38:39.535Z,14.50
2023-03-28T05:41:06.367Z,11.93
2023-03-28T05:43:32.921Z,10.53
2023-03-28T05:45:59.590Z,16.23
2023-03-28T05:48:26.140Z,11.60
2023-03-28T05:50:52.749Z,17.23
2023-03-28T05:53:19.262Z,11.30
2023-03-28T05:55:45.869Z,20.13
2023-03-28T05:58:13.631Z,14.50
2023-03-28T06:00:41.929Z,21.37
2023-03-28T06:03:09.510Z,12.53
2023-03-28T06:05:43.178Z,14.80
2023-03-28T06:08:10.016Z,17.47
2023-03-28T06:10:36.870Z,13.20
2023-03-28T06:13:03.417Z,19.80
2023-03-28T06:15:29.961Z,18.77
2023-03-28T06:17:57.875Z,16.90
2023-03-28T06:20:24.474Z,12.30
2023-03-28T06:22:51.037Z,15.63
2023-03-28T06:25:17.971Z,12.70
2023-03-28T06:27:44.460Z,13.63
2023-03-28T06:30:11.619Z,14.33
2023-03-28T06:32:38.496Z,15.23
2023-03-28T06:35:05.656Z,14.37
2023-03-28T06:37:32.473Z,19.80
2023-03-28T06:39:59.419Z,11.40
2023-03-28T06:42:27.204Z,11.63
2023-03-28T06:44:53.771Z,12.30
2023-03-28T06:47:20.704Z,14.43
2023-03-28T06:49:47.241Z,15.70
2023-03-28T06:52:13.770Z,11.43
2023-03-28T06:54:40.649Z,14.13
2023-03-28T06:57:07.363Z,13.20
2023-03-28T06:59:34.439Z,14.10
2023-03-28T07:02:01.080Z,22.13
2023-03-28T07:04:27.784Z,18.77
2023-03-28T07:06:54.279Z,15.83
2023-03-28T07:09:21.229Z,17.90
2023-03-28T07:11:55.427Z,21.43
2023-03-28T07:14:22.405Z,20.00
2023-03-28T07:16:59.117Z,15.33
2023-03-28T07:19:25.962Z,13.60
2023-03-28T07:21:53.153Z,13.80
2023-03-28T07:24:19.798Z,9.97
2023-03-28T07:26:46.415Z,10.60
2023-03-28T07:29:13.649Z,19.47
2023-03-28T07:31:40.308Z,15.67
2023-03-28T07:34:06.937Z,13.60
2023-03-28T07:36:33.551Z,23.20
2023-03-28T07:39:00.026Z,18.13
2023-03-28T07:41:26.573Z,11.27
2023-03-28T07:43:53.028Z,7.10
2023-03-28T07:46:20.957Z,11.77
2023-03-28T07:48:47.723Z,8.30
2023-03-28T07:51:15.133Z,18.70
2023-03-28T07:53:41.910Z,12.80
2023-03-28T07:56:10.561Z,15.27
2023-03-28T07:58:38.878Z,12.87
2023-03-28T08:01:10.972Z,10.60
2023-03-28T08:03:37.705Z,22.20
2023-03-28T08:06:11.312Z,11.33
2023-03-28T08:08:47.025Z,13.60
2023-03-28T08:11:13.555Z,7.90
2023-03-28T08:13:40.267Z,10.57
2023-03-28T08:16:07.364Z,9.43
2023-03-28T08:18:33.976Z,7.77
2023-03-28T08:21:02.512Z,16.60
2023-03-28T08:23:29.747Z,10.17
2023-03-28T08:26:04.813Z,13.30
2023-03-28T08:28:35.765Z,8.23
2023-03-28T08:31:09.154Z,13.13
2023-03-28T08:33:35.827Z,9.63
2023-03-28T08:36:02.498Z,14.93
2023-03-28T08:38:29.173Z,10.87
2023-03-28T08:41:02.451Z,14.23
2023-03-28T08:43:49.449Z,8.80
2023-03-28T08:47:04.609Z,3.50
2023-03-28T08:49:35.987Z,11.63
2023-03-28T08:52:03.194Z,12.47
2023-03-28T08:54:41.436Z,5.47
2023-03-28T08:57:17.470Z,9.90
2023-03-28T09:00:14.944Z,8.50
2023-03-28T09:02:42.799Z,7.57
2023-03-28T09:05:23.727Z,8.83
2023-03-28T09:08:04.305Z,5.47
2023-03-28T09:10:45.006Z,5.27
2023-03-28T09:13:30.370Z,8.47
2023-03-28T09:16:27.330Z,12.93
2023-03-28T09:19:21.852Z,6.63
2023-03-28T09:22:15.732Z,4.80
2023-03-28T09:25:00.153Z,12.30
2023-03-28T09:27:37.747Z,5.60
2023-03-28T09:30:17.771Z,5.10
2023-03-28T09:32:45.022Z,8.80
2023-03-28T09:35:17.442Z,16.80
2023-03-28T09:37:48.760Z,7.93
2023-03-28T09:40:28.616Z,3.77
2023-03-28T09:43:19.780Z,6.97
2023-03-28T09:46:22.192Z,9.37
2023-03-28T09:48:49.111Z,4.63
2023-03-28T09:51:17.553Z,4.20
2023-03-28T09:53:44.040Z,6.00
2023-03-28T09:56:19.897Z,3.97
2023-03-28T09:58:52.995Z,6.20
2023-03-28T10:01:38.986Z,3.40
2023-03-28T10:04:19.994Z,4.23
2023-03-28T10:06:48.133Z,5.13
2023-03-28T10:09:31.544Z,3.07
2023-03-28T10:11:59.755Z,8.47
2023-03-28T10:14:40.716Z,4.30
2023-03-28T10:17:25.977Z,9.93
2023-03-28T10:19:53.901Z,6.37
2023-03-28T10:22:26.093Z,6.20
2023-03-28T10:24:53.176Z,4.27
2023-03-28T10:27:25.849Z,5.23
2023-03-28T10:29:54.642Z,11.90
2023-03-28T10:32:29.563Z,6.70
2023-03-28T10:35:25.056Z,8.30
2023-03-28T10:37:56.251Z,6.40
2023-03-28T10:40:27.985Z,6.47
2023-03-28T10:42:56.549Z,4.67
2023-03-28T10:45:24.451Z,3.93
2023-03-28T10:47:53.375Z,5.27
2023-03-28T10:50:25.485Z,2.43
2023-03-28T10:53:38.670Z,3.33
2023-03-28T10:56:34.506Z,3.57
2023-03-28T10:59:19.800Z,1.93
2023-03-28T11:01:58.672Z,6.20
2023-03-28T11:04:34.258Z,9.40
2023-03-28T11:07:04.468Z,8.37
2023-03-28T11:09:59.798Z,4.27
2023-03-28T11:12:43.725Z,6.73
2023-03-28T11:15:24.566Z,7.23
2023-03-28T11:18:09.727Z,2.43
2023-03-28T11:21:01.317Z,1.63
2023-03-28T11:23:48.989Z,4.07
2023-03-28T11:26:20.734Z,6.47
2023-03-28T11:28:50.477Z,5.57
2023-03-28T11:31:33.448Z,3.20
2023-03-28T11:34:05.103Z,4.40
2023-03-28T11:36:51.335Z,3.47
2023-03-28T11:39:26.760Z,4.63
2023-03-28T11:41:53.908Z,3.93
2023-03-28T11:44:28.320Z,3.93
2023-03-28T11:47:12.320Z,5.00
2023-03-28T11:49:47.882Z,5.27
2023-03-28T11:52:25.901Z,8.43
2023-03-28T11:55:04.555Z,1.70
2023-03-28T11:57:57.761Z,4.53
2023-03-28T12:00:34.266Z,4.40
2023-03-28T12:03:13.403Z,3.20
2023-03-28T12:05:46.885Z,3.20
2023-03-28T12:08:23.650Z,5.63
2023-03-28T12:10:52.913Z,9.03
2023-03-28T12:13:25.577Z,2.10
2023-03-28T12:15:58.887Z,6.83
2023-03-28T12:18:36.850Z,1.97
2023-03-28T12:21:12.004Z,5.40
2023-03-28T12:24:00.273Z,6.80
2023-03-28T12:27:00.974Z,4.87
2023-03-28T12:29:44.144Z,1.67
2023-03-28T12:32:14.065Z,2.80
2023-03-28T12:34:45.945Z,6.50
2023-03-28T12:37:14.773Z,5.73
2023-03-28T12:39:44.598Z,8.80
2023-03-28T12:42:13.274Z,2.40
2023-03-28T12:44:44.258Z,5.47
2023-03-28T12:47:17.218Z,3.67
2023-03-28T12:49:46.899Z,6.53
2023-03-28T12:52:24.431Z,3.33
2023-03-28T12:55:03.365Z,4.37
2023-03-28T12:57:45.588Z,3.63
2023-03-28T13:00:23.749Z,4.87
2023-03-28T13:02:59.364Z,4.93
2023-03-28T13:05:38.903Z,5.50
2023-03-28T13:08:31.833Z,3.33
2023-03-28T13:11:23.396Z,2.70
2023-03-28T13:13:58.088Z,5.67
2023-03-28T13:16:42.723Z,6.83
2023-03-28T13:19:11.473Z,5.20
2023-03-28T13:21:47.815Z,6.10
2023-03-28T13:24:26.704Z,3.80
2023-03-28T13:26:54.648Z,6.47
2023-03-28T13:29:21.266Z,3.57
2023-03-28T13:31:48.032Z,13.70
2023-03-28T13:34:23.105Z,7.33
2023-03-28T13:36:54.084Z,3.23
2023-03-28T13:39:22.317Z,4.97
2023-03-28T13:41:48.847Z,3.23
2023-03-28T13:44:19.156Z,3.80
2023-03-28T13:46:48.037Z,5.63
2023-03-28T13:49:19.348Z,4.07
2023-03-28T13:51:46.318Z,4.90
2023-03-28T13:54:12.855Z,4.37
2023-03-28T13:56:43.553Z,2.87
2023-03-28T13:59:16.652Z,8.00
2023-03-28T14:02:15.768Z,3.70
2023-03-28T14:04:53.638Z,3.40
2023-03-28T14:07:28.241Z,3.00
2023-03-28T14:09:56.628Z,3.90
2023-03-28T14:12:25.225Z,4.97
2023-03-28T14:14:54.238Z,4.00
2023-03-28T14:17:23.698Z,7.03
2023-03-28T14:19:56.785Z,7.40
2023-03-28T14:22:28.859Z,3.30
2023-03-28T14:24:59.364Z,3.83
2023-03-28T14:27:48.105Z,8.13
2023-03-28T14:30:32.427Z,3.60
2023-03-28T14:33:02.319Z,6.67
2023-03-28T14:35:30.967Z,2.67
2023-03-28T14:38:03.668Z,6.30
2023-03-28T14:40:37.217Z,2.70
2023-03-28T14:43:20.607Z,2.37
2023-03-28T14:45:50.385Z,4.37
2023-03-28T14:48:27.304Z,2.10
2023-03-28T14:50:54.642Z,3.50
2023-03-28T14:53:27.329Z,3.00
2023-03-28T14:55:58.159Z,3.93
2023-03-28T14:58:27.384Z,3.77
2023-03-28T15:00:58.249Z,2.73
2023-03-28T15:03:35.398Z,1.73
2023-03-28T15:06:02.506Z,1.80
2023-03-28T15:08:34.275Z,1.80
2023-03-28T15:11:11.662Z,3.80
2023-03-28T15:13:39.977Z,3.20
2023-03-28T15:16:08.217Z,3.20
2023-03-28T15:18:48.923Z,2.20
2023-03-28T15:21:15.699Z,3.00
2023-03-28T15:23:49.052Z,5.13
2023-03-28T15:26:28.934Z,2.70
2023-03-28T15:28:56.737Z,2.63
2023-03-28T15:31:24.591Z,2.40
2023-03-28T15:33:52.802Z,2.33
2023-03-28T15:36:25.022Z,8.83
2023-03-28T15:38:59.588Z,5.60
2023-03-28T15:41:33.324Z,4.23
2023-03-28T15:44:10.481Z,3.93
2023-03-28T15:46:37.172Z,5.00
2023-03-28T15:49:05.357Z,4.50
2023-03-28T15:51:42.210Z,4.70
2023-03-28T15:54:23.832Z,4.33
2023-03-28T15:56:56.520Z,5.93
2023-03-28T15:59:39.387Z,3.30
2023-03-28T16:02:24.180Z,3.13
2023-03-28T16:04:56.908Z,7.90
2023-03-28T16:07:23.505Z,4.90
2023-03-28T16:09:51.409Z,3.13
2023-03-28T16:12:19.121Z,3.20
2023-03-28T16:14:48.834Z,3.70
2023-03-28T16:17:15.627Z,2.87
2023-03-28T16:19:43.811Z,3.20
2023-03-28T16:22:10.598Z,5.40
2023-03-28T16:24:37.121Z,3.67
2023-03-28T16:27:03.822Z,4.20
2023-03-28T16:29:31.660Z,5.03
2023-03-28T16:31:58.191Z,4.80
2023-03-28T16:34:24.971Z,4.37
2023-03-28T16:36:51.714Z,4.70
2023-03-28T16:39:18.594Z,3.10
2023-03-28T16:41:45.520Z,3.63
2023-03-28T16:44:12.046Z,6.00
2023-03-28T16:46:38.668Z,4.83
2023-03-28T16:49:05.243Z,2.77
2023-03-28T16:51:31.852Z,6.10
2023-03-28T16:53:58.575Z,3.73
2023-03-28T16:56:27.218Z,5.03
2023-03-28T16:58:54.557Z,4.60
2023-03-28T17:01:21.146Z,2.70
2023-03-28T17:03:49.616Z,3.07
2023-03-28T17:06:16.730Z,4.60
2023-03-28T17:08:44.202Z,6.93
2023-03-28T17:11:12.206Z,4.30
2023-03-28T17:13:39.983Z,2.97
2023-03-28T17:16:08.669Z,2.40
2023-03-28T17:18:35.949Z,3.10
2023-03-28T17:21:07.965Z,2.60
2023-03-28T17:23:35.300Z,9.07
2023-03-28T17:26:02.259Z,25.83
2023-03-28T17:28:29.711Z,3.10
2023-03-28T17:30:56.851Z,6.87
2023-03-28T17:33:23.649Z,4.33
2023-03-28T17:35:50.763Z,7.40
2023-03-28T17:38:17.286Z,18.67
2023-03-28T17:40:47.863Z,2.60
2023-03-28T17:43:14.662Z,6.03
2023-03-28T17:45:41.423Z,2.40
2023-03-28T17:48:08.315Z,4.23
2023-03-28T17:50:34.922Z,2.70
2023-03-28T17:53:01.456Z,3.97
2023-03-28T17:55:28.655Z,2.20
2023-03-28T17:57:55.706Z,2.53
2023-03-28T18:00:22.320Z,2.10
2023-03-28T18:02:50.782Z,5.63
2023-03-28T18:05:18.114Z,3.13
2023-03-28T18:07:44.819Z,4.13
2023-03-28T18:10:11.996Z,8.00
2023-03-28T18:12:38.551Z,4.57
2023-03-28T18:15:06.502Z,6.70
2023-03-28T18:17:33.091Z,4.47
2023-03-28T18:19:59.834Z,5.90
2023-03-28T18:22:26.989Z,8.63
2023-03-28T18:24:54.373Z,6.20
2023-03-28T18:27:21.721Z,5.70
2023-03-28T18:29:49.352Z,6.00
2023-03-28T18:32:16.447Z,3.87
2023-03-28T18:34:43.589Z,3.60
2023-03-28T18:37:11.838Z,4.80
2023-03-28T18:39:41.526Z,4.37
2023-03-28T18:42:08.645Z,4.47
2023-03-28T18:44:37.143Z,5.00
2023-03-28T18:47:05.224Z,6.10
2023-03-28T18:49:32.026Z,9.30
2023-03-28T18:52:04.842Z,4.20
2023-03-28T18:54:32.565Z,6.00
2023-03-28T18:56:59.471Z,4.80
2023-03-28T18:59:26.975Z,5.60
2023-03-28T19:01:53.892Z,5.43
2023-03-28T19:04:23.121Z,5.03
2023-03-28T19:06:50.369Z,2.80
2023-03-28T19:09:16.974Z,3.67
2023-03-28T19:11:43.690Z,2.70
2023-03-28T19:14:10.424Z,2.60
2023-03-28T19:16:37.258Z,4.77
2023-03-28T19:19:04.021Z,7.13
2023-03-28T19:21:30.689Z,6.00
2023-03-28T19:23:57.417Z,7.43
2023-03-28T19:26:23.925Z,4.47
2023-03-28T19:28:51.334Z,7.70
2023-03-28T19:31:18.147Z,12.60
2023-03-28T19:33:45.263Z,10.30
2023-03-28T19:36:11.928Z,14.60
2023-03-28T19:38:39.223Z,26.80
2023-03-28T19:41:10.410Z,22.50
2023-03-28T19:43:37.817Z,24.40
2023-03-28T19:46:06.288Z,19.30
2023-03-28T19:48:33.280Z,9.53
2023-03-28T19:50:59.761Z,12.20
2023-03-28T19:53:27.133Z,5.87
2023-03-28T19:55:54.873Z,6.83
2023-03-28T19:58:23.239Z,8.40
2023-03-28T20:00:50.055Z,3.67
2023-03-28T20:03:17.245Z,3.20
2023-03-28T20:05:45.812Z,4.83
2023-03-28T20:08:12.523Z,5.83
2023-03-28T20:10:43.537Z,6.17
2023-03-28T20:13:10.877Z,3.93
2023-03-28T20:15:38.593Z,4.57
2023-03-28T20:18:05.682Z,6.77
2023-03-28T20:24:31.546Z,3.17
2023-03-28T20:26:58.502Z,2.30
2023-03-28T20:29:25.385Z,4.00
2023-03-28T20:31:52.630Z,3.10
2023-03-28T20:34:19.154Z,6.47
2023-03-28T20:36:46.419Z,4.40
2023-03-28T20:39:14.180Z,2.87
2023-03-28T20:41:40.889Z,3.37
2023-03-28T20:44:08.622Z,5.33
2023-03-28T20:46:38.651Z,5.03
2023-03-28T20:49:06.216Z,9.23
2023-03-28T20:51:33.016Z,3.97
2023-03-28T20:54:00.769Z,3.50
2023-03-28T20:56:29.661Z,3.87
2023-03-28T20:58:58.111Z,8.20
2023-03-28T21:01:29.947Z,5.63
2023-03-28T21:03:59.746Z,3.47
2023-03-28T21:06:33.252Z,4.03
2023-03-28T21:09:04.473Z,4.27
2023-03-28T21:11:33.090Z,5.30
2023-03-28T21:14:00.310Z,4.37
2023-03-28T21:16:28.135Z,4.90
2023-03-28T21:18:54.702Z,7.27
2023-03-28T21:21:21.919Z,5.87
2023-03-28T21:23:49.200Z,7.40
2023-03-28T21:26:18.156Z,4.13
2023-03-28T21:28:45.786Z,4.80
2023-03-28T21:31:14.365Z,4.30
2023-03-28T21:33:42.778Z,4.93
2023-03-28T21:36:11.642Z,10.87
2023-03-28T21:38:39.058Z,7.63
2023-03-28T21:41:07.430Z,4.90
2023-03-28T21:43:34.651Z,8.17
2023-03-28T21:46:02.143Z,5.87
2023-03-28T21:48:29.404Z,6.57
2023-03-28T21:51:00.592Z,7.23
2023-03-28T21:53:36.190Z,6.07
2023-03-28T21:56:04.078Z,8.43
2023-03-28T21:58:32.739Z,6.13
2023-03-28T22:01:01.397Z,8.60
2023-03-28T22:03:28.696Z,6.57
2023-03-28T22:05:55.616Z,8.20
2023-03-28T22:08:22.906Z,5.80
2023-03-28T22:10:52.606Z,5.60
2023-03-28T22:13:19.995Z,5.77
2023-03-28T22:15:47.214Z,5.20
2023-03-28T22:18:15.744Z,14.33
2023-03-28T22:20:43.603Z,8.03
2023-03-28T22:23:10.529Z,6.07
2023-03-28T22:25:38.275Z,6.23
2023-03-28T22:28:09.877Z,4.43
2023-03-28T22:30:40.090Z,5.63
2023-03-28T22:33:09.610Z,4.50
2023-03-28T22:35:36.494Z,4.90
2023-03-28T22:38:03.978Z,7.60
2023-03-28T22:40:31.698Z,5.93
2023-03-28T22:42:58.324Z,7.23
2023-03-28T22:45:27.272Z,5.80
2023-03-28T22:47:54.563Z,7.17
2023-03-28T22:50:22.427Z,4.87
2023-03-28T22:52:52.863Z,5.10
2023-03-28T22:55:22.137Z,4.47
2023-03-28T22:57:51.598Z,4.37
2023-03-28T23:00:18.822Z,6.60
2023-03-28T23:02:47.589Z,5.60
2023-03-28T23:05:14.360Z,4.90
2023-03-28T23:07:44.752Z,4.70
2023-03-28T23:10:19.165Z,5.73
2023-03-28T23:12:47.277Z,4.63
2023-03-28T23:15:14.056Z,4.80
2023-03-28T23:17:40.904Z,5.20
2023-03-28T23:20:12.361Z,4.37
2023-03-28T23:22:43.522Z,6.40
2023-03-28T23:25:12.378Z,4.73
2023-03-28T23:27:39.420Z,5.63
2023-03-28T23:30:06.812Z,4.03
2023-03-28T23:32:33.397Z,5.03
2023-03-28T23:35:00.116Z,7.87
2023-03-28T23:37:27.495Z,6.77
2023-03-28T23:39:54.834Z,5.17
2023-03-28T23:42:21.784Z,6.87
2023-03-28T23:44:48.312Z,4.97
2023-03-28T23:47:15.343Z,4.53
2023-03-28T23:49:42.532Z,6.00
2023-03-28T23:52:09.918Z,7.43
2023-03-28T23:54:36.467Z,4.10
2023-03-28T23:57:03.612Z,5.00
2023-03-28T23:59:30.183Z,4.40
